createdAt,value
2019-06-26T00:01:55.393Z,64.11
2019-06-26T00:04:23.873Z,64.46
2019-06-26T00:06:52.328Z,63.12
2019-06-26T00:09:20.833Z,64.23
2019-06-26T00:11:49.353Z,62.54
2019-06-26T00:14:17.811Z,62.20
2019-06-26T00:16:46.362Z,61.67
2019-06-26T00:19:14.882Z,61.54
2019-06-26T00:21:43.375Z,61.17
2019-06-26T00:24:11.901Z,60.58
2019-06-26T00:26:40.351Z,59.91
2019-06-26T00:29:08.831Z,59.66
2019-06-26T00:31:37.352Z,59.04
2019-06-26T00:34:05.870Z,58.66
2019-06-26T00:36:34.318Z,58.75
2019-06-26T00:39:03.508Z,58.71
2019-06-26T00:41:31.966Z,57.83
2019-06-26T00:44:00.521Z,57.88
2019-06-26T00:46:28.984Z,57.96
2019-06-26T00:48:57.439Z,57.98
2019-06-26T00:51:26.172Z,57.45
2019-06-26T00:53:54.625Z,57.47
2019-06-26T00:56:23.083Z,57.28
2019-06-26T00:58:51.565Z,56.80
2019-06-26T01:01:20.163Z,56.54
2019-06-26T01:03:50.276Z,56.24
2019-06-26T01:06:32.382Z,56.06
2019-06-26T01:09:01.022Z,56.01
2019-06-26T01:11:29.473Z,55.88
2019-06-26T01:13:58.547Z,55.84
2019-06-26T01:16:27.058Z,55.34
2019-06-26T01:18:55.534Z,54.98
2019-06-26T01:21:24.148Z,55.14
2019-06-26T01:23:52.639Z,55.02
2019-06-26T01:26:21.133Z,54.86
2019-06-26T01:28:49.587Z,54.95
2019-06-26T01:31:18.034Z,54.69
2019-06-26T01:33:46.515Z,54.55
2019-06-26T01:36:15.028Z,54.14
2019-06-26T01:38:43.517Z,54.66
2019-06-26T01:41:11.957Z,54.43
2019-06-26T01:43:40.427Z,54.37
2019-06-26T01:46:08.889Z,54.64
2019-06-26T01:48:37.377Z,54.43
2019-06-26T01:51:05.890Z,54.96
2019-06-26T01:53:34.374Z,54.81
2019-06-26T01:56:02.834Z,54.72
2019-06-26T01:58:31.312Z,54.83
2019-06-26T02:00:59.763Z,55.05
2019-06-26T02:03:28.255Z,54.94
2019-06-26T02:05:56.710Z,54.85
2019-06-26T02:08:25.165Z,55.31
2019-06-26T02:10:53.668Z,55.18
2019-06-26T02:13:22.116Z,55.43
2019-06-26T02:15:50.732Z,55.28
2019-06-26T02:18:33.069Z,55.49
2019-06-26T02:21:01.777Z,55.61
2019-06-26T02:23:30.226Z,55.85
2019-06-26T02:25:58.674Z,55.93
2019-06-26T02:28:27.193Z,55.78
2019-06-26T02:30:55.671Z,55.67
2019-06-26T02:33:24.181Z,55.79
2019-06-26T02:35:53.122Z,56.08
2019-06-26T02:38:21.710Z,56.04
2019-06-26T02:40:50.157Z,56.10
2019-06-26T02:43:18.616Z,55.96
2019-06-26T02:45:47.110Z,56.05
2019-06-26T02:48:15.629Z,55.86
2019-06-26T02:50:44.109Z,56.25
2019-06-26T02:53:12.566Z,56.18
2019-06-26T02:55:41.493Z,56.42
2019-06-26T02:58:09.943Z,56.87
2019-06-26T03:00:38.481Z,56.99
2019-06-26T03:03:07.132Z,57.50
2019-06-26T03:05:35.667Z,57.04
2019-06-26T03:08:04.185Z,57.15
2019-06-26T03:10:32.740Z,57.37
2019-06-26T03:13:01.198Z,57.34
2019-06-26T03:15:29.735Z,57.13
2019-06-26T03:17:58.197Z,56.93
2019-06-26T03:20:29.693Z,57.08
2019-06-26T03:22:58.195Z,56.81
2019-06-26T03:25:26.653Z,56.78
2019-06-26T03:27:55.206Z,56.98
2019-06-26T03:30:23.788Z,57.22
2019-06-26T03:32:52.274Z,56.87
2019-06-26T03:35:20.754Z,56.78
2019-06-26T03:37:49.181Z,56.97
2019-06-26T03:40:17.829Z,57.50
2019-06-26T03:42:46.345Z,57.25
2019-06-26T03:45:24.992Z,57.04
2019-06-26T03:47:45.219Z,57.07
2019-06-26T03:50:13.962Z,57.14
2019-06-26T03:52:42.416Z,57.31
2019-06-26T03:55:11.090Z,57.25
2019-06-26T03:57:39.641Z,57.42
2019-06-26T04:00:08.835Z,57.25
2019-06-26T04:02:37.396Z,57.44
2019-06-26T04:05:06.731Z,57.92
2019-06-26T04:07:35.204Z,57.93
2019-06-26T04:10:05.487Z,58.04
2019-06-26T04:12:34.097Z,58.05
2019-06-26T04:15:02.585Z,57.79
2019-06-26T04:17:31.075Z,57.78
2019-06-26T04:19:59.530Z,57.70
2019-06-26T04:22:28.012Z,57.75
2019-06-26T04:24:56.510Z,57.62
2019-06-26T04:27:24.953Z,57.35
2019-06-26T04:29:53.443Z,57.52
2019-06-26T04:32:21.878Z,57.39
2019-06-26T04:34:50.398Z,57.10
2019-06-26T04:37:18.874Z,57.14
2019-06-26T04:39:47.314Z,57.30
2019-06-26T04:42:15.809Z,57.85
2019-06-26T04:44:44.272Z,57.70
2019-06-26T04:47:12.701Z,57.48
2019-06-26T04:49:41.255Z,57.24
2019-06-26T04:52:09.701Z,57.25
2019-06-26T04:54:38.210Z,57.12
2019-06-26T04:57:06.660Z,57.48
2019-06-26T04:59:35.136Z,57.78
2019-06-26T05:02:03.642Z,57.88
2019-06-26T05:04:32.103Z,58.12
2019-06-26T05:07:00.730Z,58.28
2019-06-26T05:09:29.196Z,58.75
2019-06-26T05:11:57.747Z,59.09
2019-06-26T05:14:26.262Z,59.52
2019-06-26T05:16:54.741Z,58.99
2019-06-26T05:19:23.200Z,58.97
2019-06-26T05:21:51.635Z,59.53
2019-06-26T05:24:21.001Z,61.57
2019-06-26T05:26:49.521Z,60.51
2019-06-26T05:29:18.060Z,62.11
2019-06-26T05:31:46.521Z,60.70
2019-06-26T05:34:15.039Z,60.89
2019-06-26T05:36:43.483Z,60.10
2019-06-26T05:39:11.930Z,58.73
2019-06-26T05:41:40.420Z,58.01
2019-06-26T05:44:08.863Z,57.84
2019-06-26T05:46:37.353Z,57.87
2019-06-26T05:49:05.935Z,56.91
2019-06-26T05:51:34.439Z,56.65
2019-06-26T05:54:02.925Z,57.01
2019-06-26T05:56:31.368Z,57.02
2019-06-26T05:58:59.856Z,57.15
2019-06-26T06:01:28.379Z,57.12
2019-06-26T06:03:56.926Z,57.51
2019-06-26T06:06:40.744Z,57.20
2019-06-26T06:08:55.626Z,57.14
2019-06-26T06:11:24.113Z,56.86
2019-06-26T06:13:52.574Z,57.13
2019-06-26T06:16:21.061Z,57.48
2019-06-26T06:18:49.591Z,57.35
2019-06-26T06:21:18.081Z,58.05
2019-06-26T06:23:46.535Z,57.51
2019-06-26T06:26:15.018Z,57.41
2019-06-26T06:28:43.536Z,57.83
2019-06-26T06:31:11.993Z,57.74
2019-06-26T06:33:40.489Z,56.81
2019-06-26T06:36:09.901Z,56.92
2019-06-26T06:38:38.493Z,56.63
2019-06-26T06:41:06.940Z,57.84
2019-06-26T06:43:35.553Z,56.99
2019-06-26T06:46:04.079Z,57.09
2019-06-26T06:48:32.579Z,57.55
2019-06-26T06:51:01.035Z,58.23
2019-06-26T06:53:29.480Z,57.94
2019-06-26T06:55:57.963Z,58.34
2019-06-26T06:58:29.971Z,57.88
2019-06-26T07:00:56.710Z,58.06
2019-06-26T07:03:25.148Z,57.36
2019-06-26T07:05:53.624Z,57.06
2019-06-26T07:08:22.072Z,58.48
2019-06-26T07:10:50.537Z,57.00
2019-06-26T07:13:19.015Z,58.21
2019-06-26T07:15:47.451Z,57.86
2019-06-26T07:18:15.936Z,58.40
2019-06-26T07:20:44.842Z,58.01
2019-06-26T07:23:13.434Z,57.35
2019-06-26T07:25:41.887Z,58.52
2019-06-26T07:28:10.353Z,58.86
2019-06-26T07:30:38.810Z,58.58
2019-06-26T07:33:07.262Z,58.11
2019-06-26T07:35:35.877Z,58.96
2019-06-26T07:38:04.500Z,59.69
2019-06-26T07:40:32.975Z,59.67
2019-06-26T07:43:01.444Z,59.26
2019-06-26T07:45:29.878Z,57.49
2019-06-26T07:47:58.354Z,56.69
2019-06-26T07:50:26.808Z,57.28
2019-06-26T07:52:55.550Z,57.58
2019-06-26T07:55:24.013Z,55.96
2019-06-26T07:57:52.487Z,59.41
2019-06-26T08:00:21.296Z,56.84
2019-06-26T08:02:49.758Z,57.09
2019-06-26T08:05:18.744Z,56.61
2019-06-26T08:07:47.329Z,56.24
2019-06-26T08:10:16.402Z,55.25
2019-06-26T08:12:44.860Z,55.16
2019-06-26T08:15:13.682Z,56.29
2019-06-26T08:17:59.403Z,53.89
2019-06-26T08:20:14.249Z,54.78
2019-06-26T08:22:42.687Z,54.82
2019-06-26T08:25:11.519Z,54.45
2019-06-26T08:27:39.970Z,53.45
2019-06-26T08:30:09.658Z,53.06
2019-06-26T08:32:38.162Z,54.02
2019-06-26T08:35:08.254Z,52.34
2019-06-26T08:37:36.776Z,52.95
2019-06-26T08:40:06.919Z,52.81
2019-06-26T08:42:36.635Z,53.37
2019-06-26T08:45:07.548Z,55.03
2019-06-26T08:47:36.017Z,52.88
2019-06-26T08:50:07.679Z,54.65
2019-06-26T08:52:36.353Z,53.46
2019-06-26T08:55:09.445Z,53.59
2019-06-26T08:57:37.893Z,52.72
2019-06-26T09:00:09.510Z,53.54
2019-06-26T09:02:37.963Z,53.14
2019-06-26T09:05:06.990Z,53.10
2019-06-26T09:07:35.570Z,51.92
2019-06-26T09:10:06.053Z,56.76
2019-06-26T09:12:34.583Z,55.44
2019-06-26T09:15:03.522Z,52.12
2019-06-26T09:17:32.024Z,52.15
2019-06-26T09:20:00.473Z,54.30
2019-06-26T09:22:28.945Z,52.58
2019-06-26T09:24:57.398Z,55.12
2019-06-26T09:27:25.881Z,52.73
2019-06-26T09:29:54.483Z,53.33
2019-06-26T09:32:23.055Z,53.46
2019-06-26T09:34:51.580Z,52.23
2019-06-26T09:37:20.034Z,52.59
2019-06-26T09:39:48.511Z,52.05
2019-06-26T09:42:19.558Z,53.39
2019-06-26T09:44:47.156Z,52.40
2019-06-26T09:47:15.812Z,52.27
2019-06-26T09:49:44.279Z,53.79
2019-06-26T09:52:12.717Z,53.13
2019-06-26T09:54:41.165Z,53.65
2019-06-26T09:57:09.649Z,54.26
2019-06-26T09:59:38.095Z,53.97
2019-06-26T10:02:06.660Z,52.77
2019-06-26T10:04:35.192Z,52.51
2019-06-26T10:07:03.855Z,53.45
2019-06-26T10:09:32.317Z,52.02
2019-06-26T10:12:00.774Z,55.17
2019-06-26T10:14:46.517Z,51.88
2019-06-26T10:16:59.458Z,51.47
2019-06-26T10:19:27.977Z,53.01
2019-06-26T10:21:56.440Z,52.49
2019-06-26T10:24:24.892Z,52.60
2019-06-26T10:26:53.445Z,52.41
2019-06-26T10:29:21.890Z,51.33
2019-06-26T10:31:50.555Z,52.01
2019-06-26T10:34:19.052Z,51.12
2019-06-26T10:36:47.555Z,50.83
2019-06-26T10:39:16.037Z,52.45
2019-06-26T10:41:44.525Z,52.31
2019-06-26T10:44:12.976Z,51.17
2019-06-26T10:46:41.595Z,52.11
2019-06-26T10:49:25.811Z,50.10
2019-06-26T10:51:40.267Z,50.95
2019-06-26T10:54:08.719Z,52.63
2019-06-26T10:56:37.219Z,50.76
2019-06-26T10:59:05.670Z,51.74
2019-06-26T11:01:34.275Z,52.69
2019-06-26T11:04:02.833Z,50.09
2019-06-26T11:06:31.360Z,48.69
2019-06-26T11:08:59.861Z,50.70
2019-06-26T11:11:28.321Z,49.16
2019-06-26T11:13:56.878Z,50.30
2019-06-26T11:16:25.396Z,49.35
2019-06-26T11:18:53.890Z,50.41
2019-06-26T11:21:34.986Z,50.40
2019-06-26T11:24:17.094Z,48.37
2019-06-26T11:27:04.167Z,46.45
2019-06-26T11:29:31.882Z,48.59
2019-06-26T11:32:00.330Z,48.04
2019-06-26T11:34:28.784Z,48.38
2019-06-26T11:37:03.736Z,49.63
2019-06-26T11:39:28.276Z,49.82
2019-06-26T11:41:56.755Z,51.54
2019-06-26T11:44:25.307Z,49.36
2019-06-26T11:46:53.714Z,48.46
2019-06-26T11:49:22.194Z,48.14
2019-06-26T11:51:50.720Z,50.21
2019-06-26T11:54:19.277Z,49.50
2019-06-26T11:56:54.391Z,50.94
2019-06-26T11:59:33.795Z,49.15
2019-06-26T12:02:02.249Z,49.32
2019-06-26T12:04:30.708Z,50.25
2019-06-26T12:06:59.179Z,48.86
2019-06-26T12:09:27.633Z,48.72
2019-06-26T12:11:56.117Z,49.06
2019-06-26T12:14:24.580Z,49.34
2019-06-26T12:16:53.029Z,49.98
2019-06-26T12:19:23.548Z,49.27
2019-06-26T12:21:51.746Z,50.63
2019-06-26T12:24:20.259Z,50.66
2019-06-26T12:26:48.714Z,49.57
2019-06-26T12:29:17.220Z,50.88
2019-06-26T12:31:45.659Z,50.46
2019-06-26T12:34:14.118Z,50.06
2019-06-26T12:36:42.611Z,50.63
2019-06-26T12:39:11.066Z,49.61
2019-06-26T12:41:39.533Z,51.87
2019-06-26T12:44:07.980Z,49.45
2019-06-26T12:46:36.517Z,50.25
2019-06-26T12:49:05.033Z,47.59
2019-06-26T12:51:33.529Z,48.88
2019-06-26T12:54:01.978Z,49.51
2019-06-26T12:56:30.780Z,47.72
2019-06-26T12:59:00.119Z,47.53
2019-06-26T13:01:28.749Z,48.42
2019-06-26T13:03:57.261Z,47.98
2019-06-26T13:06:25.772Z,46.88
2019-06-26T13:08:54.287Z,49.97
2019-06-26T13:11:22.845Z,49.42
2019-06-26T13:14:02.070Z,47.33
2019-06-26T13:16:21.491Z,48.77
2019-06-26T13:18:49.966Z,48.51
2019-06-26T13:21:18.465Z,49.75
2019-06-26T13:23:46.894Z,49.37
2019-06-26T13:26:15.414Z,48.69
2019-06-26T13:28:43.889Z,47.67
2019-06-26T13:31:12.423Z,48.59
2019-06-26T13:33:40.918Z,48.71
2019-06-26T13:36:09.370Z,48.74
2019-06-26T13:38:37.830Z,46.81
2019-06-26T13:41:06.369Z,47.52
2019-06-26T13:43:34.810Z,47.51
2019-06-26T13:46:03.300Z,49.03
2019-06-26T13:48:31.823Z,46.56
2019-06-26T13:51:09.524Z,46.73
2019-06-26T13:53:30.503Z,46.93
2019-06-26T13:55:58.958Z,47.70
2019-06-26T13:58:27.448Z,48.71
2019-06-26T14:00:55.884Z,47.95
2019-06-26T14:03:24.327Z,47.88
2019-06-26T14:05:52.806Z,48.48
2019-06-26T14:08:21.369Z,47.80
2019-06-26T14:10:49.915Z,49.04
2019-06-26T14:13:18.371Z,47.90
2019-06-26T14:15:46.813Z,49.14
2019-06-26T14:18:15.376Z,49.10
2019-06-26T14:20:43.830Z,46.43
2019-06-26T14:23:12.309Z,46.54
2019-06-26T14:25:40.774Z,46.83
2019-06-26T14:28:09.217Z,45.86
2019-06-26T14:30:37.699Z,45.82
2019-06-26T14:33:06.151Z,45.19
2019-06-26T14:35:34.703Z,46.86
2019-06-26T14:38:03.171Z,43.65
2019-06-26T14:40:31.664Z,43.92
2019-06-26T14:43:00.132Z,45.33
2019-06-26T14:45:28.581Z,44.95
2019-06-26T14:47:57.075Z,43.23
2019-06-26T14:50:25.535Z,44.03
2019-06-26T14:52:54.023Z,43.38
2019-06-26T14:55:22.540Z,43.62
2019-06-26T14:57:50.996Z,43.72
2019-06-26T15:00:20.115Z,42.80
2019-06-26T15:02:48.564Z,43.67
2019-06-26T15:05:17.534Z,44.62
2019-06-26T15:07:45.978Z,45.35
2019-06-26T15:10:14.870Z,42.82
2019-06-26T15:12:43.367Z,43.53
2019-06-26T15:15:12.254Z,44.81
2019-06-26T15:17:40.744Z,42.41
2019-06-26T15:20:09.730Z,43.80
2019-06-26T15:22:38.251Z,43.11
2019-06-26T15:25:07.731Z,43.27
2019-06-26T15:27:36.253Z,43.07
2019-06-26T15:30:07.062Z,43.32
2019-06-26T15:32:35.534Z,43.95
2019-06-26T15:35:07.198Z,44.29
2019-06-26T15:37:35.722Z,44.12
2019-06-26T15:40:06.271Z,46.73
2019-06-26T15:42:34.860Z,44.63
2019-06-26T15:45:03.364Z,44.86
2019-06-26T15:47:31.926Z,44.35
2019-06-26T15:50:00.380Z,46.05
2019-06-26T15:52:31.523Z,47.34
2019-06-26T15:54:59.089Z,47.81
2019-06-26T15:57:27.532Z,49.17
2019-06-26T15:59:56.020Z,49.52
2019-06-26T16:02:24.546Z,50.31
2019-06-26T16:04:53.025Z,50.45
2019-06-26T16:07:21.490Z,50.13
2019-06-26T16:09:50.033Z,50.89
2019-06-26T16:12:18.487Z,51.81
2019-06-26T16:14:46.951Z,51.73
2019-06-26T16:17:20.047Z,51.51
2019-06-26T16:19:48.498Z,52.41
2019-06-26T16:22:31.169Z,51.21
2019-06-26T16:24:47.172Z,52.49
2019-06-26T16:27:15.660Z,52.24
2019-06-26T16:29:44.116Z,51.63
2019-06-26T16:32:12.708Z,53.02
2019-06-26T16:34:41.164Z,51.70
2019-06-26T16:37:09.694Z,52.58
2019-06-26T16:39:38.238Z,52.54
2019-06-26T16:42:06.712Z,52.28
2019-06-26T16:44:35.195Z,51.77
2019-06-26T16:47:03.649Z,52.49
2019-06-26T16:49:32.156Z,53.33
2019-06-26T16:52:00.618Z,53.06
2019-06-26T16:54:29.080Z,53.28
2019-06-26T16:56:57.579Z,53.63
2019-06-26T16:59:26.018Z,54.56
2019-06-26T17:01:54.509Z,53.10
2019-06-26T17:04:22.969Z,54.04
2019-06-26T17:06:51.497Z,55.23
2019-06-26T17:09:19.994Z,54.12
2019-06-26T17:11:48.453Z,54.55
2019-06-26T17:14:16.953Z,56.07
2019-06-26T17:16:45.404Z,55.20
2019-06-26T17:19:13.951Z,55.21
2019-06-26T17:21:42.414Z,55.73
2019-06-26T17:24:10.930Z,55.18
2019-06-26T17:26:39.388Z,56.51
2019-06-26T17:29:07.839Z,55.73
2019-06-26T17:31:36.415Z,56.36
2019-06-26T17:34:05.013Z,55.88
2019-06-26T17:36:33.495Z,55.93
2019-06-26T17:39:02.057Z,55.57
2019-06-26T17:41:30.578Z,56.75
2019-06-26T17:43:59.028Z,57.23
2019-06-26T17:46:27.594Z,56.92
2019-06-26T17:48:56.067Z,56.49
2019-06-26T17:51:24.520Z,56.68
2019-06-26T17:53:53.016Z,57.23
2019-06-26T17:56:21.486Z,57.11
2019-06-26T17:58:50.011Z,57.17
2019-06-26T18:01:18.467Z,56.88
2019-06-26T18:03:47.011Z,56.96
2019-06-26T18:06:15.496Z,56.42
2019-06-26T18:08:43.945Z,56.74
2019-06-26T18:11:12.412Z,57.44
2019-06-26T18:13:40.922Z,57.62
2019-06-26T18:16:09.378Z,57.68
2019-06-26T18:18:37.837Z,57.65
2019-06-26T18:21:06.881Z,58.00
2019-06-26T18:23:38.448Z,58.05
2019-06-26T18:26:12.954Z,58.17
2019-06-26T18:28:35.965Z,58.45
2019-06-26T18:31:04.547Z,58.62
2019-06-26T18:33:33.031Z,58.51
2019-06-26T18:36:01.492Z,57.14
2019-06-26T18:38:29.978Z,58.27
2019-06-26T18:40:58.457Z,57.90
2019-06-26T18:43:26.917Z,58.07
2019-06-26T18:45:55.369Z,57.71
2019-06-26T18:48:25.011Z,57.99
2019-06-26T18:50:53.711Z,58.35
2019-06-26T18:53:22.163Z,57.46
2019-06-26T18:55:50.681Z,57.25
2019-06-26T18:58:19.178Z,59.03
2019-06-26T19:00:47.668Z,57.75
2019-06-26T19:03:16.144Z,57.60
2019-06-26T19:05:44.750Z,57.48
2019-06-26T19:08:13.200Z,57.72
2019-06-26T19:10:41.655Z,57.82
2019-06-26T19:13:10.124Z,57.68
2019-06-26T19:15:38.576Z,57.72
2019-06-26T19:18:07.101Z,57.58
2019-06-26T19:20:35.560Z,56.93
2019-06-26T19:23:04.118Z,57.40
2019-06-26T19:25:32.574Z,57.55
2019-06-26T19:28:01.083Z,56.67
2019-06-26T19:30:29.619Z,56.41
2019-06-26T19:32:58.143Z,56.25
2019-06-26T19:35:26.772Z,56.70
2019-06-26T19:37:55.230Z,57.50
2019-06-26T19:40:24.416Z,57.98
2019-06-26T19:42:52.997Z,56.57
2019-06-26T19:45:21.920Z,57.89
2019-06-26T19:47:50.449Z,56.80
2019-06-26T19:50:23.343Z,56.18
2019-06-26T19:52:50.099Z,55.83
2019-06-26T19:55:18.627Z,55.41
2019-06-26T19:57:47.105Z,55.09
2019-06-26T20:00:16.707Z,54.76
2019-06-26T20:02:45.198Z,54.72
2019-06-26T20:05:15.010Z,53.85
2019-06-26T20:07:43.506Z,54.26
2019-06-26T20:10:13.863Z,54.72
2019-06-26T20:12:42.453Z,54.26
2019-06-26T20:15:11.800Z,54.95
2019-06-26T20:17:40.246Z,54.85
2019-06-26T20:20:08.868Z,54.63
2019-06-26T20:22:37.381Z,55.21
2019-06-26T20:25:07.109Z,54.81
2019-06-26T20:27:35.698Z,55.17
2019-06-26T20:30:09.401Z,55.28
2019-06-26T20:32:36.011Z,55.81
2019-06-26T20:35:06.680Z,56.26
2019-06-26T20:37:35.198Z,56.15
2019-06-26T20:40:05.677Z,56.96
2019-06-26T20:42:34.190Z,56.63
2019-06-26T20:45:02.706Z,56.36
2019-06-26T20:47:31.239Z,55.65
2019-06-26T20:49:59.653Z,55.82
2019-06-26T20:52:28.150Z,55.90
2019-06-26T20:55:02.130Z,56.73
2019-06-26T20:57:26.813Z,56.56
2019-06-26T20:59:55.268Z,57.58
2019-06-26T21:02:23.764Z,56.84
2019-06-26T21:04:52.212Z,57.32
2019-06-26T21:07:21.003Z,57.02
2019-06-26T21:09:49.458Z,57.39
2019-06-26T21:12:18.206Z,57.50
2019-06-26T21:14:46.722Z,57.22
2019-06-26T21:17:15.173Z,57.58
2019-06-26T21:19:43.671Z,57.43
2019-06-26T21:22:12.114Z,57.47
2019-06-26T21:24:40.618Z,57.25
2019-06-26T21:27:09.060Z,56.83
2019-06-26T21:29:37.560Z,57.13
2019-06-26T21:32:06.016Z,57.22
2019-06-26T21:34:34.456Z,57.49
2019-06-26T21:37:02.958Z,58.09
2019-06-26T21:39:31.409Z,58.02
2019-06-26T21:41:59.897Z,58.03
2019-06-26T21:44:28.352Z,57.73
2019-06-26T21:46:56.841Z,57.66
2019-06-26T21:49:25.294Z,57.83
2019-06-26T21:51:53.792Z,58.16
2019-06-26T21:54:22.295Z,58.23
2019-06-26T21:56:50.741Z,58.85
2019-06-26T21:59:19.233Z,59.44
2019-06-26T22:01:47.822Z,59.61
2019-06-26T22:04:16.499Z,60.62
2019-06-26T22:06:45.253Z,60.08
2019-06-26T22:09:14.189Z,60.73
2019-06-26T22:11:42.773Z,61.05
2019-06-26T22:14:11.228Z,61.82
2019-06-26T22:16:39.713Z,61.02
2019-06-26T22:19:08.215Z,60.64
2019-06-26T22:21:36.703Z,60.53
2019-06-26T22:24:05.166Z,60.94
2019-06-26T22:26:33.766Z,61.39
2019-06-26T22:29:02.493Z,61.44
2019-06-26T22:31:31.034Z,61.28
2019-06-26T22:33:59.539Z,61.93
2019-06-26T22:36:28.058Z,62.12
2019-06-26T22:38:56.531Z,62.25
2019-06-26T22:41:24.988Z,62.76
2019-06-26T22:43:53.476Z,62.63
2019-06-26T22:46:21.926Z,63.25
2019-06-26T22:48:50.442Z,63.21
2019-06-26T22:51:18.989Z,63.67
2019-06-26T22:53:47.522Z,64.27
2019-06-26T22:56:16.014Z,64.19
2019-06-26T22:58:44.474Z,64.47
2019-06-26T23:01:12.980Z,64.89
2019-06-26T23:03:41.428Z,64.65
2019-06-26T23:06:09.893Z,65.07
2019-06-26T23:08:38.369Z,65.84
2019-06-26T23:11:06.904Z,65.90
2019-06-26T23:13:35.400Z,65.99
2019-06-26T23:16:03.913Z,66.04
2019-06-26T23:18:32.409Z,65.88
2019-06-26T23:21:00.874Z,66.15
2019-06-26T23:23:29.379Z,66.30
2019-06-26T23:25:57.897Z,66.37
2019-06-26T23:28:26.354Z,66.24
2019-06-26T23:30:54.892Z,66.22
2019-06-26T23:33:23.404Z,66.45
2019-06-26T23:35:51.907Z,66.34
2019-06-26T23:38:20.682Z,66.43
2019-06-26T23:40:49.164Z,66.46
2019-06-26T23:43:17.630Z,66.54
2019-06-26T23:45:46.202Z,66.41
2019-06-26T23:48:14.667Z,66.75
2019-06-26T23:50:43.123Z,67.10
2019-06-26T23:53:11.615Z,67.51
2019-06-26T23:55:40.061Z,67.33
2019-06-26T23:58:08.549Z,67.16
